• Join FlightAware (Why Join?)
  • Login
  • US Flag 
04:49AM EDT


 

Airport Tracker/Info


-or-


 

Live Flight TrackerFlight Track Log ✈ N749SS ✈ 26-Feb-2014 ✈ KHPN - KAPF

Flight Track Log - Related Links

Times and Time Zones

All times are in EST time to prevent confusion due to time zone crossing. See the N749SS flight status page for this flight to view local times or setup timezone preferences in your user account.

Time Position Orientation Groundspeed Altitude Reporting Facility
EST Latitude Longitude Course Direction KTS MPH feet Rate Location/Type
04:42PM 41.0833 -73.7500 201° Southwest 191 220 2,600  Level New York TRACON
04:43PM 41.1000 -73.8167 288° West 198 228 5,800 2,160 Climbing New York TRACON
04:44PM 41.0500 -73.8833 225° Southwest 244 281 7,000 600 Climbing New York TRACON
04:45PM 40.9833 -73.9000 191° South 272 313 7,100 1,800 Climbing New York TRACON
04:46PM 40.9000 -73.9167 189° South 284 327 10,800 2,400 Climbing New York TRACON
04:47PM 40.5840 -73.9497 201° Southwest  Level FlightAware Approximate
04:47PM 40.8167 -73.9500 197° South 355 409 12,000  Level New York TRACON
04:48PM 40.7333 -73.9833 197° South 289 333 12,000  Level New York TRACON
04:49PM 40.6500 -74.0333 204° Southwest 292 336 12,000  Level New York TRACON
04:50PM 40.5833 -74.0667 201° Southwest 293 337 12,000  Level New York TRACON
04:51PM 40.5333 -74.1333 225° Southwest 279 321 12,000 1,200 Level New York TRACON
04:52PM 40.4667 -74.1833 210° Southwest 296 341 14,300 2,460 Climbing New York TRACON
04:53PM 40.3667 -74.1667 173° South 359 413 17,000 1,080 Climbing New York TRACON
04:54PM 40.2308 -74.1856 186° South 388 447 17,000  Level New York Center
04:55PM 40.1447 -74.2139 194° South 339 390 17,000 1,440 Level New York Center
04:57PM 40.0303 -74.3778 228° Southwest 281 323 21,900 1,980 Climbing Washington Center
04:58PM 39.9747 -74.4572 228° Southwest 294 338 23,500 1,020 Climbing Washington Center
04:59PM 39.8983 -74.5258 215° Southwest 314 361 24,000 1,140 Climbing Washington Center
05:00PM 39.8200 -74.6056 218° Southwest 345 397 25,900 1,920 Climbing Washington Center
05:01PM 39.7372 -74.6850 216° Southwest 370 426 27,900 1,980 Climbing Washington Center
05:02PM 39.6483 -74.7722 217° Southwest 387 445 29,900 2,100 Climbing Washington Center
05:03PM 39.5550 -74.8622 217° Southwest 392 451 32,200 2,340 Climbing Washington Center
05:04PM 39.4700 -74.9383 215° Southwest 386 444 34,700 2,280 Climbing Washington Center
05:05PM 39.3681 -74.9903 202° Southwest 386 444 36,800 1,800 Climbing Washington Center
05:06PM 39.2706 -75.0392 201° Southwest 380 437 38,300 1,320 Climbing Washington Center
05:07PM 39.1747 -75.0883 202° Southwest 380 437 39,500 840 Climbing Washington Center
05:08PM 39.0769 -75.1397 202° Southwest 380 437 40,000 120 Climbing Washington Center
05:10PM 38.8689 -75.2503 199° South 396 456 40,000  Level Washington Center
05:11PM 38.7650 -75.3014 201° Southwest 396 456 40,000  Level Washington Center
05:12PM 38.6608 -75.3525 201° Southwest 401 461 40,000  Level Washington Center
05:13PM 38.5544 -75.4086 202° Southwest 401 461 40,000  Level Washington Center
05:14PM 38.4525 -75.4644 203° Southwest 407 468 40,000  Level Washington Center
05:15PM 38.3483 -75.5097 199° South 407 468 40,000  Level Washington Center
05:16PM 38.2461 -75.5706 205° Southwest 407 468 40,000  Level Washington Center
05:17PM 38.1481 -75.6339 207° Southwest 407 468 40,000  Level Washington Center
05:18PM 38.0667 -75.6761 202° Southwest 402 463 40,000  Level Washington Center
05:19PM 37.9353 -75.7208 195° South 402 463 40,000  Level Washington Center
05:20PM 37.8228 -75.7494 191° South 413 475 40,000  Level Washington Center
05:21PM 37.7142 -75.7808 193° South 413 475 40,000  Level Washington Center
05:22PM 37.6056 -75.8094 192° South 413 475 40,000  Level Washington Center
05:23PM 37.4972 -75.8406 193° South 408 470 40,000  Level Washington Center
05:24PM 37.4011 -75.8950 204° Southwest 400 460 40,000  Level Washington Center
05:25PM 37.3111 -75.9575 209° Southwest 381 438 40,000  Level Washington Center
05:26PM 37.2192 -76.0194 208° Southwest 376 433 40,000  Level Washington Center
05:27PM 37.1292 -76.0817 209° Southwest 376 433 40,000  Level Washington Center
05:28PM 37.0331 -76.1461 208° Southwest 376 433 40,000  Level Washington Center
05:29PM 36.9389 -76.2053 207° Southwest 376 433 40,000 360 Level Washington Center
05:30PM 36.8447 -76.2667 208° Southwest 381 438 40,800 840 Climbing Washington Center
05:31PM 36.7525 -76.3281 208° Southwest 381 438 41,700 780 Climbing Washington Center
05:32PM 36.6625 -76.3919 210° Southwest 376 433 42,400 600 Climbing Washington Center
05:33PM 36.5744 -76.4506 208° Southwest 371 427 43,000 300 Climbing Washington Center
05:34PM 36.4822 -76.5089 207° Southwest 371 427 43,000  Level Washington Center
05:35PM 36.3900 -76.5700 208° Southwest 371 427 43,000  Level Washington Center
05:36PM 36.2956 -76.6306 207° Southwest 371 427 43,000  Level Washington Center
05:37PM 36.2011 -76.6936 208° Southwest 376 433 43,000  Level Washington Center
05:38PM 36.1086 -76.7542 208° Southwest 376 433 43,000  Level Washington Center
05:39PM 36.0247 -76.8094 208° Southwest 376 433 43,000  Level Washington Center
05:40PM 35.9322 -76.8694 208° Southwest 376 433 43,000  Level Washington Center
05:41PM 35.8378 -76.9269 206° Southwest 376 433 43,000  Level Washington Center
05:42PM 35.7411 -76.9892 208° Southwest 376 433 43,000  Level Washington Center
05:43PM 35.6464 -77.0489 207° Southwest 376 433 43,000  Level Washington Center
05:44PM 35.5558 -77.1111 209° Southwest 376 433 43,000  Level Washington Center
05:45PM 35.4614 -77.1731 208° Southwest 376 433 43,000  Level Washington Center
05:46PM 35.3622 -77.2347 207° Southwest 387 445 43,000  Level Washington Center
05:47PM 35.2656 -77.2964 208° Southwest 393 452 43,000  Level Washington Center
05:48PM 35.1708 -77.3556 207° Southwest 393 452 43,000  Level Washington Center
05:49PM 35.0758 -77.4169 208° Southwest 393 452 43,000  Level Washington Center
05:50PM 34.9789 -77.4781 207° Southwest 398 458 43,000  Level Washington Center
05:51PM 34.8800 -77.5414 208° Southwest 398 458 43,000  Level Washington Center
05:52PM 34.7872 -77.6050 209° Southwest 398 458 43,000  Level Washington Center
05:53PM 34.6922 -77.6608 206° Southwest 393 452 43,000  Level Washington Center
05:54PM 34.6014 -77.7217 209° Southwest 393 452 43,000  Level Washington Center
05:55PM 34.4958 -77.7869 207° Southwest 388 447 43,000  Level Washington Center
05:56PM 34.4031 -77.8447 207° Southwest 388 447 43,000  Level Washington Center
05:57PM 34.3042 -77.8922 202° Southwest 383 441 43,000  Level Washington Center
06:00PM 34.0281 -77.9664 193° South 410 472 43,000  Level Jacksonville Center
06:01PM 33.9189 -77.9978 193° South 415 478 43,000  Level Jacksonville Center
06:02PM 33.8094 -78.0314 194° South 411 473 43,000  Level Jacksonville Center
06:03PM 33.6958 -78.0625 193° South 411 473 43,000  Level Jacksonville Center
06:04PM 33.5969 -78.0928 194° South 411 473 43,000  Level Jacksonville Center
06:05PM 33.4836 -78.1264 194° South 411 473 43,000  Level Jacksonville Center
06:06PM 33.3719 -78.1572 193° South 411 473 43,000  Level Jacksonville Center
06:07PM 33.2606 -78.1881 193° South 411 473 43,000  Level Jacksonville Center
06:08PM 33.1489 -78.2211 194° South 411 473 43,000  Level Jacksonville Center
06:09PM 33.0353 -78.2519 193° South 411 473 43,000  Level Jacksonville Center
06:10PM 32.9217 -78.2850 194° South 411 473 43,000  Level Jacksonville Center
06:11PM 32.8081 -78.3131 192° South 411 473 43,000  Level Jacksonville Center
06:12PM 32.6967 -78.3508 196° South 411 473 43,000  Level Jacksonville Center
06:13PM 32.5828 -78.3786 192° South 416 479 43,000  Level Jacksonville Center
06:14PM 32.4672 -78.4139 194° South 416 479 43,000  Level Jacksonville Center
06:15PM 32.3536 -78.4442 193° South 421 484 43,000  Level Jacksonville Center
06:16PM 32.2400 -78.4792 195° South 421 484 43,000  Level Jacksonville Center
06:17PM 32.1261 -78.5117 194° South 421 484 43,000  Level Jacksonville Center
06:18PM 32.0125 -78.5439 194° South 426 490 43,000  Level Jacksonville Center
06:19PM 31.8989 -78.5786 195° South 426 490 43,000  Level Jacksonville Center
06:20PM 31.7872 -78.6083 193° South 425 489 43,000  Level Jacksonville Center
06:21PM 31.6675 -78.6456 195° South 430 495 43,000  Level Jacksonville Center
06:22PM 31.5578 -78.6750 193° South 430 495 43,000  Level Jacksonville Center
06:23PM 31.4419 -78.7094 194° South 430 495 43,000  Level Jacksonville Center
06:24PM 31.3261 -78.7414 193° South 430 495 43,000  Level Jacksonville Center
06:25PM 31.2125 -78.7731 193° South 430 495 43,000  Level Jacksonville Center
06:26PM 31.0967 -78.8072 194° South 425 489 43,000  Level Jacksonville Center
06:27PM 30.9828 -78.8364 192° South 431 496 43,000  Level Jacksonville Center
06:28PM 30.8711 -78.8725 196° South 431 496 43,000  Level Jacksonville Center
06:29PM 30.7572 -78.9042 193° South 426 490 43,000  Level Jacksonville Center
06:30PM 30.6433 -78.9353 193° South 426 490 43,000  Level Jacksonville Center
06:33PM 30.2947 -79.0511 196° South 426 490 43,000  Level Miami Center
06:34PM 30.1856 -79.0969 200° South 417 480 43,000  Level Miami Center
06:35PM 30.0806 -79.1453 202° Southwest 411 473 43,000  Level Miami Center
06:37PM 29.8686 -79.2411 201° Southwest 416 479 43,000 -180 Level Miami Center
06:38PM 29.7633 -79.2889 202° Southwest 411 473 42,500 -780 Descending Miami Center
06:39PM 29.6606 -79.3319 200° South 411 473 41,500 -1,020 Descending Miami Center
06:40PM 29.5533 -79.3725 198° South 411 473 40,500 -1,020 Descending Miami Center
06:41PM 29.4483 -79.4225 203° Southwest 416 479 39,500 -1,020 Descending Miami Center
06:42PM 29.3411 -79.4725 202° Southwest 416 479 38,500 -1,020 Descending Miami Center
06:43PM 29.2275 -79.5150 198° South 416 479 37,500 -1,260 Descending Miami Center
06:44PM 29.1161 -79.5622 200° South 426 490 36,000 -1,800 Descending Miami Center
06:45PM 29.0128 -79.6214 207° Southwest 431 496 33,900 -1,920 Descending Miami Center
06:46PM 28.9156 -79.6922 213° Southwest 425 489 32,200 -1,800 Descending Miami Center
06:47PM 28.8097 -79.7558 208° Southwest 425 489 30,400 -1,800 Descending Miami Center
06:48PM 28.7042 -79.8267 210° Southwest 435 501 28,600 -1,800 Descending Miami Center
06:49PM 28.6025 -79.8947 210° Southwest 440 506 26,800 -2,280 Descending Miami Center
06:50PM 28.5156 -79.9514 210° Southwest 393 452 24,100 -2,880 Descending Miami Center
06:51PM 28.4269 -80.0081 209° Southwest 376 433 21,100 -3,000 Descending Miami Center
06:52PM 28.3419 -80.0647 210° Southwest 365 420 18,100 -3,000 Descending Miami Center
06:53PM 28.2553 -80.1211 210° Southwest 365 420 15,100 -2,100 Descending Miami Center
06:54PM 28.1661 -80.1797 210° Southwest 365 420 14,000 -600 Descending Miami Center
06:55PM 28.0772 -80.2336 208° Southwest 370 426 14,000  Level Miami Center
06:56PM 27.9883 -80.2922 210° Southwest 370 426 14,000  Level Miami Center
06:57PM 27.8972 -80.3503 209° Southwest 370 426 14,000  Level Miami Center
06:58PM 27.7994 -80.4131 210° Southwest 370 426 14,000  Level Miami Center
06:59PM 27.7083 -80.4714 210° Southwest 370 426 14,100  Climbing Miami Center
07:00PM 27.6358 -80.5347 218° Southwest 375 432 14,100  Level Miami Center
07:01PM 27.5606 -80.6142 223° Southwest 370 426 14,100  Level Miami Center
07:02PM 27.4792 -80.7006 223° Southwest 370 426 14,100  Level Miami Center
07:03PM 27.4189 -80.7664 224° Southwest 377 434 14,100 -60 Level Miami Center
07:04PM 27.3372 -80.8547 224° Southwest 377 434 14,000 -180 Descending Miami Center
07:05PM 27.2619 -80.9314 222° Southwest 372 428 13,800 -600 Descending Miami Center
07:06PM 27.1972 -81.0017 224° Southwest 344 396 12,900 -1,020 Descending Miami Center
07:07PM 27.1306 -81.0717 223° Southwest 309 356 11,800 -1,260 Descending Miami Center
07:08PM 27.0681 -81.1392 224° Southwest 304 350 10,400 -900 Descending Miami Center
07:09PM 27.0011 -81.2092 223° Southwest 333 383 10,000 -240 Descending Miami Center
07:10PM 26.9300 -81.2878 225° Southwest 356 410 10,000  Level Miami Center
07:11PM 26.8481 -81.3708 222° Southwest 356 410 10,000  Level Miami Center
07:12PM 26.7628 -81.4258 210° Southwest 356 410 10,000  Level Miami Center
07:13PM 26.6717 -81.4664 202° Southwest 361 415 10,000 -300 Level Miami Center
07:14PM 26.5936 -81.4981 200° South 324 373 9,400 -1,320 Descending Miami Center
07:15PM 26.5278 -81.5281 202° Southwest 274 315 7,400 -2,040 Descending Miami Center
07:16PM 26.4622 -81.5556 201° Southwest 255 293 5,400 -1,980 Descending Miami Center
07:17PM 26.3986 -81.5831 201° Southwest 255 293 3,500 -1,920 Descending Miami Center
07:19PM 26.2627 -81.7057 208° Southwest  Level FlightAware Approximate
07:26PM 26.1500 -81.7667 204° Southwest  Level FlightAware Approximate
07:27PM 26.1524 -81.7756 204° Southwest  Level Estimated
07:28PM 26.1524 -81.7756 204° Southwest  Level Estimated
07:29PM 26.1524 -81.7756 204° Southwest  Level Estimated
07:30PM 26.1524 -81.7756 204° Southwest  Level Estimated
07:31PM 26.1524 -81.7756 204° Southwest  Level Estimated
07:32PM 26.1524 -81.7756 204° Southwest  Level Estimated